Time;durP1;ratioP1;P1;durP2;ratioP2;P2;SDS_P1;SDS_P2;PMS_P1;PMS_P2;Temp;Humidity;BMP_temperature;BMP_pressure;BME280_temperature;BME280_humidity;BME280_pressure;Samples;Min_cycle;Max_cycle;Signal;HPM_P1;HPM_P2
2022/06/18 00:01:34;;;;;;;14.50;4.50;;;;;;;19.64;55.13;99252.69;25045;1315;3026708;-70
2022/06/18 00:04:08;;;;;;;17.40;5.80;;;;;;;19.58;55.09;99257.88;25057;1315;3027977;-68
2022/06/18 00:06:54;;;;;;;19.10;6.50;;;;;;;19.58;54.48;99262.80;25105;1316;3026919;-69
2022/06/18 00:09:35;;;;;;;18.30;7.60;;;;;;;19.45;55.22;99267.10;25067;1315;3051922;-63
2022/06/18 00:15:14;;;;;;;15.60;6.80;;;;;;;19.36;55.08;99263.73;25115;1315;3051647;-64
2022/06/18 00:17:45;;;;;;;16.90;6.60;;;;;;;19.33;55.08;99265.03;25056;1316;3053514;-63
2022/06/18 00:20:15;;;;;;;20.10;7.00;;;;;;;19.35;55.34;99267.52;25079;1315;3027159;-66
2022/06/18 00:22:50;;;;;;;19.80;6.50;;;;;;;19.32;55.45;99262.10;25131;1315;3026406;-68
2022/06/18 00:25:23;;;;;;;20.10;6.90;;;;;;;19.30;55.75;99260.94;25092;1315;3050424;-71
2022/06/18 00:27:52;;;;;;;22.60;6.60;;;;;;;19.32;55.78;99261.61;25059;1316;3026746;-64
2022/06/18 00:30:22;;;;;;;12.80;5.20;;;;;;;19.33;55.87;99260.28;25084;1316;3026722;-66
2022/06/18 00:32:51;;;;;;;15.20;6.20;;;;;;;19.36;56.09;99261.37;25063;1315;3026068;-67
2022/06/18 00:35:22;;;;;;;12.60;5.10;;;;;;;19.42;55.05;99257.23;25101;1315;3029030;-66
2022/06/18 00:37:55;;;;;;;15.30;5.10;;;;;;;19.45;55.85;99255.81;25049;1315;3026728;-63
2022/06/18 00:40:28;;;;;;;13.70;5.60;;;;;;;19.47;56.03;99248.70;25048;1315;3069159;-62
2022/06/18 00:43:01;;;;;;;10.20;5.40;;;;;;;19.49;56.17;99248.38;25103;1315;3027422;-67
2022/06/18 00:45:33;;;;;;;14.80;5.10;;;;;;;19.52;55.91;99247.55;25080;1315;3052348;-66
2022/06/18 00:48:06;;;;;;;12.90;5.60;;;;;;;19.54;56.04;99248.95;25048;1316;3027020;-67
2022/06/18 00:50:51;;;;;;;13.30;5.50;;;;;;;19.57;55.80;99248.64;25092;1315;3049439;-65
2022/06/18 00:53:23;;;;;;;15.40;6.30;;;;;;;19.57;56.18;99245.98;25046;1316;3054701;-69
2022/06/18 00:56:00;;;;;;;18.10;6.60;;;;;;;19.56;56.19;99242.66;25102;1316;3028324;-69
2022/06/18 00:58:36;;;;;;;15.70;6.50;;;;;;;19.57;56.34;99236.52;25071;1316;3056871;-63
2022/06/18 01:01:16;;;;;;;15.40;5.40;;;;;;;19.61;56.41;99235.44;25050;1315;3051593;-65
2022/06/18 01:03:46;;;;;;;24.30;5.20;;;;;;;19.56;56.62;99243.06;25036;1316;3055283;-67
2022/06/18 01:06:20;;;;;;;10.50;4.00;;;;;;;19.59;56.44;99244.55;25113;1316;3029372;-66
2022/06/18 01:08:52;;;;;;;;;;;;;;;19.54;57.03;99249.81;25091;1315;3069021;-65
2022/06/18 01:11:23;;;;;;;12.30;3.40;;;;;;;19.36;57.47;99248.41;25045;1318;3026632;-64
2022/06/18 01:13:53;;;;;;;8.50;3.10;;;;;;;19.28;57.38;99248.89;25033;1316;3027038;-62
2022/06/18 01:16:24;;;;;;;9.00;3.20;;;;;;;19.25;57.76;99248.47;25087;1315;3026978;-67
2022/06/18 01:18:53;;;;;;;6.30;2.70;;;;;;;19.28;57.58;99248.00;25103;1315;3027084;-66
2022/06/18 01:21:40;;;;;;;8.20;2.90;;;;;;;19.32;57.71;99249.59;25041;1315;3026963;-69
2022/06/18 01:24:10;;;;;;;7.30;2.90;;;;;;;19.36;57.59;99250.80;25106;1315;3052885;-69
2022/06/18 01:26:39;;;;;;;7.80;2.60;;;;;;;19.37;57.45;99251.55;25110;1315;3026559;-67
2022/06/18 01:29:08;;;;;;;6.50;2.60;;;;;;;19.35;57.33;99257.08;24998;1315;3049002;-67
2022/06/18 01:31:38;;;;;;;6.20;2.60;;;;;;;19.33;57.67;99258.89;25092;1315;3026712;-65
2022/06/18 01:34:08;;;;;;;4.50;2.80;;;;;;;19.32;57.46;99251.89;25125;1315;3027008;-63
2022/06/18 01:36:39;;;;;;;6.20;2.80;;;;;;;19.29;58.02;99256.39;25006;1315;3026138;-64
2022/06/18 01:39:18;;;;;;;9.50;3.00;;;;;;;19.33;57.36;99259.75;24994;1316;3028761;-68
2022/06/18 01:41:49;;;;;;;10.10;3.20;;;;;;;19.36;57.70;99254.35;25094;1315;3054913;-69
2022/06/18 01:44:41;;;;;;;5.10;2.70;;;;;;;19.37;57.40;99258.32;25056;1316;3055440;-65
2022/06/18 01:47:20;;;;;;;9.90;4.20;;;;;;;19.37;57.63;99257.39;25075;1315;3059194;-68
2022/06/18 01:49:57;;;;;;;12.70;3.90;;;;;;;19.41;57.21;99257.45;25093;1315;3049527;-68
2022/06/18 01:52:32;;;;;;;8.90;3.50;;;;;;;19.43;57.54;99259.95;25050;1315;3055263;-64
2022/06/18 01:55:12;;;;;;;8.10;4.20;;;;;;;19.43;57.73;99263.86;25086;1315;3055322;-65
2022/06/18 01:57:46;;;;;;;12.40;3.90;;;;;;;19.48;57.38;99261.28;24939;1316;3071194;-64
2022/06/18 02:00:21;;;;;;;12.10;4.90;;;;;;;19.52;57.56;99258.35;25104;1315;3030283;-66
2022/06/18 02:02:54;;;;;;;10.30;5.40;;;;;;;19.55;57.39;99259.11;25042;1316;3054299;-65
2022/06/18 02:05:24;;;;;;;11.70;5.50;;;;;;;19.56;57.24;99263.80;25033;1315;3026127;-70
2022/06/18 02:07:53;;;;;;;10.90;6.30;;;;;;;19.60;57.05;99267.33;25066;1315;3026736;-64
2022/06/18 02:10:27;;;;;;;14.60;6.60;;;;;;;19.64;56.63;99264.64;25113;1315;3052341;-67
2022/06/18 02:13:00;;;;;;;15.70;6.50;;;;;;;19.67;56.81;99269.15;25043;1315;3052082;-62
2022/06/18 02:15:34;;;;;;;16.00;5.50;;;;;;;19.66;56.94;99266.38;25083;1315;3026508;-65
2022/06/18 02:18:05;;;;;;;10.30;5.20;;;;;;;19.65;56.93;99261.65;25110;1315;3048856;-63
2022/06/18 02:20:38;;;;;;;11.70;5.40;;;;;;;19.63;56.77;99266.46;25045;1315;3026830;-70
2022/06/18 02:23:07;;;;;;;11.60;5.30;;;;;;;19.54;56.92;99272.77;25054;1315;3026741;-69
2022/06/18 02:25:36;;;;;;;11.30;4.90;;;;;;;19.46;56.17;99270.67;25037;1316;3027115;-65
2022/06/18 02:28:29;;;;;;;15.60;4.20;;;;;;;19.37;56.19;99276.43;24987;1315;3027028;-67
2022/06/18 02:31:00;;;;;;;11.20;5.30;;;;;;;19.22;56.79;99270.24;25056;1315;3054914;-68
2022/06/18 02:33:40;;;;;;;9.70;4.60;;;;;;;19.20;56.52;99274.92;25021;1315;3026802;-69
2022/06/18 02:36:17;;;;;;;11.30;4.30;;;;;;;19.21;56.70;99273.00;25084;1315;3058629;-64
2022/06/18 02:38:47;;;;;;;12.40;5.00;;;;;;;19.24;56.60;99271.06;25102;1316;3050320;-64
2022/06/18 02:41:18;;;;;;;18.50;5.50;;;;;;;19.23;56.88;99267.63;25103;1315;3026193;-64
2022/06/18 02:43:49;;;;;;;9.70;4.90;;;;;;;19.25;57.24;99268.85;25084;1315;3026406;-62
2022/06/18 02:46:19;;;;;;;13.90;5.20;;;;;;;19.27;57.32;99272.26;25073;1316;3027513;-65
2022/06/18 02:48:48;;;;;;;15.60;4.80;;;;;;;19.23;57.30;99277.19;25036;1315;3026929;-65
2022/06/18 02:51:18;;;;;;;14.40;5.10;;;;;;;19.29;57.11;99277.33;25093;1315;3053283;-66
2022/06/18 02:53:46;;;;;;;11.10;5.10;;;;;;;19.31;56.97;99273.26;25015;1315;3026520;-67
2022/06/18 02:56:16;;;;;;;15.20;5.20;;;;;;;19.31;57.10;99275.62;25012;1318;3055012;-60
2022/06/18 02:58:46;;;;;;;12.90;5.00;;;;;;;19.26;57.02;99274.67;25016;1315;3026644;-68
2022/06/18 03:01:20;;;;;;;10.80;4.20;;;;;;;19.22;57.36;99275.95;25068;1315;3049162;-64
2022/06/18 03:03:52;;;;;;;10.00;4.80;;;;;;;19.16;57.51;99276.92;25005;1316;3053738;-66
2022/06/18 03:06:23;;;;;;;12.90;4.40;;;;;;;19.15;57.31;99281.82;25149;1316;3026187;-65
2022/06/18 03:08:57;;;;;;;9.40;4.20;;;;;;;19.14;57.37;99281.84;25037;1315;3068683;-68
2022/06/18 03:14:18;;;;;;;12.40;4.30;;;;;;;19.13;57.26;99278.55;25059;1316;3054543;-67
2022/06/18 03:16:49;;;;;;;7.90;3.80;;;;;;;19.09;57.53;99289.46;25088;1315;3026941;-64
2022/06/18 03:19:33;;;;;;;8.30;3.80;;;;;;;19.08;58.03;99290.41;25064;1315;3029163;-69
2022/06/18 03:22:12;;;;;;;9.70;3.40;;;;;;;19.12;57.53;99296.58;25009;1315;3054543;-68
2022/06/18 03:24:42;;;;;;;8.30;3.30;;;;;;;19.15;56.92;99297.29;25081;1315;3052569;-64
2022/06/18 03:27:13;;;;;;;9.20;3.60;;;;;;;19.16;56.97;99302.28;25100;1315;3026799;-65
2022/06/18 03:29:44;;;;;;;11.00;3.90;;;;;;;19.10;57.66;99304.07;25066;1316;3026575;-66
2022/06/18 03:32:13;;;;;;;10.10;3.50;;;;;;;19.05;58.08;99305.48;25076;1315;3027609;-64
2022/06/18 03:34:43;;;;;;;11.40;3.70;;;;;;;18.95;58.06;99305.35;25111;1315;3028935;-64
2022/06/18 03:37:12;;;;;;;9.40;3.50;;;;;;;18.96;58.16;99307.26;25026;1315;3026842;-69
2022/06/18 03:39:41;;;;;;;13.40;4.40;;;;;;;18.97;57.79;99315.27;25113;1314;3026470;-64
2022/06/18 03:42:11;;;;;;;20.50;4.50;;;;;;;18.84;58.34;99314.95;25024;1315;3053268;-64
2022/06/18 03:44:40;;;;;;;8.70;4.10;;;;;;;18.90;57.95;99315.44;25104;1315;3026821;-64
2022/06/18 03:47:09;;;;;;;18.20;5.40;;;;;;;18.78;58.94;99314.26;25115;1315;3054070;-64
2022/06/18 03:49:40;;;;;;;8.60;5.10;;;;;;;18.74;58.97;99310.02;25041;1315;3026958;-67
2022/06/18 03:52:10;;;;;;;18.00;4.00;;;;;;;18.67;59.11;99308.45;25032;1315;3026481;-63
2022/06/18 03:54:39;;;;;;;9.50;3.50;;;;;;;18.77;58.91;99312.27;25072;1315;3026078;-65
2022/06/18 03:57:15;;;;;;;10.20;3.20;;;;;;;18.89;58.01;99311.64;25084;1315;3053800;-68
2022/06/18 03:59:45;;;;;;;7.10;2.90;;;;;;;18.86;58.41;99310.14;25020;1316;3069119;-68
2022/06/18 04:02:14;;;;;;;8.60;3.40;;;;;;;18.85;58.45;99311.31;25068;1315;3028582;-68
2022/06/18 04:04:45;;;;;;;5.00;3.10;;;;;;;18.85;58.96;99311.67;25105;1315;3051547;-69
2022/06/18 04:07:19;;;;;;;8.00;3.60;;;;;;;18.92;58.51;99312.41;25068;1315;3026466;-64
2022/06/18 04:10:08;;;;;;;6.90;3.60;;;;;;;18.92;58.75;99306.40;25038;1315;3051539;-66
2022/06/18 04:12:40;;;;;;;9.60;3.10;;;;;;;18.91;58.55;99307.02;25066;1315;3029821;-65
2022/06/18 04:15:20;;;;;;;6.30;2.90;;;;;;;18.99;58.46;99303.05;25094;1315;3054286;-67
2022/06/18 04:18:05;;;;;;;7.70;3.40;;;;;;;19.09;58.04;99304.91;25079;1315;3057109;-65
2022/06/18 04:20:36;;;;;;;6.40;3.00;;;;;;;19.06;58.05;99307.19;25030;1315;3027799;-69
2022/06/18 04:23:09;;;;;;;5.60;3.00;;;;;;;19.09;58.29;99306.98;25115;1316;3026901;-67
2022/06/18 04:25:54;;;;;;;4.30;2.60;;;;;;;19.08;58.21;99308.34;25095;1316;3054838;-62
2022/06/18 04:28:27;;;;;;;15.20;3.00;;;;;;;19.14;58.56;99306.16;25091;1316;3026630;-62
2022/06/18 04:31:07;;;;;;;10.80;3.10;;;;;;;19.14;58.30;99310.79;25039;1316;3050297;-60
2022/06/18 04:33:39;;;;;;;8.00;3.20;;;;;;;19.24;58.30;99308.55;25118;1316;3026333;-61
2022/06/18 04:36:41;;;;;;;11.30;3.10;;;;;;;19.34;57.96;99312.95;25046;1316;3052689;-60
2022/06/18 04:39:24;;;;;;;8.90;3.00;;;;;;;19.39;57.70;99308.01;25056;1316;3058616;-61
2022/06/18 04:42:12;;;;;;;9.00;3.40;;;;;;;19.39;57.76;99310.50;25074;1315;3052328;-64
2022/06/18 04:45:00;;;;;;;9.20;3.40;;;;;;;19.45;57.83;99313.25;25048;1316;3055604;-62
2022/06/18 04:47:46;;;;;;;5.60;2.90;;;;;;;19.53;57.43;99320.27;25077;1316;3053700;-65
2022/06/18 04:50:17;;;;;;;6.00;2.90;;;;;;;19.47;57.53;99326.69;25088;1316;3026054;-62
2022/06/18 04:52:46;;;;;;;6.40;3.30;;;;;;;19.57;57.48;99323.59;25034;1316;3026757;-59
2022/06/18 04:55:15;;;;;;;14.30;3.00;;;;;;;19.57;57.90;99325.21;25093;1316;3026872;-61
2022/06/18 04:57:44;;;;;;;17.20;3.80;;;;;;;19.56;57.77;99321.00;25000;1316;3070277;-65
2022/06/18 05:00:14;;;;;;;9.90;4.00;;;;;;;19.67;57.75;99318.89;25126;1316;3026962;-64
2022/06/18 05:03:02;;;;;;;14.60;4.00;;;;;;;19.76;57.83;99322.91;25088;1314;3054151;-67
2022/06/18 05:06:05;;;;;;;8.80;3.30;;;;;;;19.83;57.59;99327.26;24971;1316;3071735;-63
2022/06/18 05:08:59;;;;;;;12.10;3.80;;;;;;;19.80;57.70;99332.13;25082;1315;3049540;-63
2022/06/18 05:11:34;;;;;;;14.70;4.20;;;;;;;19.77;58.17;99332.27;25041;1316;3055295;-62
2022/06/18 05:14:17;;;;;;;12.00;4.20;;;;;;;19.78;58.24;99335.55;25127;1316;3055549;-62
2022/06/18 05:17:12;;;;;;;7.70;3.90;;;;;;;19.80;58.13;99336.38;25093;1316;3059186;-64
2022/06/18 05:19:43;;;;;;;12.60;3.70;;;;;;;19.77;58.47;99333.98;25082;1316;3049897;-62
2022/06/18 05:22:12;;;;;;;15.90;4.30;;;;;;;19.88;58.24;99330.63;25063;1315;3026474;-64
2022/06/18 05:24:42;;;;;;;7.80;4.30;;;;;;;19.87;58.27;99334.58;25074;1316;3057442;-62
2022/06/18 05:27:21;;;;;;;10.20;4.50;;;;;;;20.03;57.99;99333.20;25046;1316;3052030;-63
2022/06/18 05:29:52;;;;;;;15.70;4.60;;;;;;;20.16;57.82;99331.35;25043;1316;3054710;-64
2022/06/18 05:32:21;;;;;;;8.90;5.00;;;;;;;20.21;57.70;99332.82;25113;1315;3026273;-63
2022/06/18 05:34:50;;;;;;;14.80;5.50;;;;;;;20.31;57.26;99339.77;25020;1316;3026656;-63
2022/06/18 05:37:24;;;;;;;18.50;6.50;;;;;;;20.31;57.28;99338.01;25081;1315;3055245;-62
2022/06/18 05:39:54;;;;;;;;;;;;;;;20.35;57.27;99336.19;25088;1316;3054120;-62
2022/06/18 05:42:23;;;;;;;8.30;4.30;;;;;;;20.38;57.47;99331.36;25030;1316;3026634;-61
2022/06/18 05:44:52;;;;;;;10.50;4.70;;;;;;;20.55;56.86;99330.90;25089;1316;3051973;-61
2022/06/18 05:47:31;;;;;;;13.10;5.70;;;;;;;20.60;56.66;99336.59;25056;1315;3026732;-62
2022/06/18 05:50:01;;;;;;;11.50;5.40;;;;;;;20.65;56.46;99336.98;25045;1316;3053007;-63
2022/06/18 05:52:33;;;;;;;8.60;4.90;;;;;;;20.68;56.38;99340.37;25113;1316;3026811;-64
2022/06/18 05:55:11;;;;;;;19.90;5.50;;;;;;;20.76;56.45;99339.05;25091;1316;3054590;-62
2022/06/18 05:57:50;;;;;;;;;;;;;;;20.86;56.38;99336.71;25100;1316;3069636;-62
2022/06/18 06:00:35;;;;;;;10.50;5.40;;;;;;;20.92;56.56;99336.23;25044;1316;3051520;-63
2022/06/18 06:03:06;;;;;;;14.30;5.60;;;;;;;21.08;55.83;99344.37;25095;1316;3026580;-64
2022/06/18 06:05:35;;;;;;;18.70;5.60;;;;;;;21.12;55.44;99342.35;25090;1315;3026479;-64
2022/06/18 06:08:06;;;;;;;14.90;5.70;;;;;;;21.14;55.86;99342.67;25105;1315;3027272;-64
2022/06/18 06:13:25;;;;;;;11.90;5.20;;;;;;;21.33;55.03;99342.07;25075;1316;3055528;-63
2022/06/18 06:16:00;;;;;;;17.90;5.60;;;;;;;21.49;54.83;99340.77;25089;1316;3051579;-62
2022/06/18 06:18:30;;;;;;;13.70;5.30;;;;;;;21.60;54.77;99337.92;25073;1316;3026194;-63
2022/06/18 06:21:02;;;;;;;11.50;5.60;;;;;;;21.77;54.48;99336.08;25071;1316;3026421;-64
2022/06/18 06:23:31;;;;;;;11.90;5.40;;;;;;;21.99;53.25;99336.68;25135;1316;3027298;-62
2022/06/18 06:26:01;;;;;;;13.80;6.50;;;;;;;22.08;53.12;99340.22;25054;1315;3026713;-63
2022/06/18 06:28:30;;;;;;;12.10;5.60;;;;;;;22.08;52.76;99338.13;25075;1316;3026613;-61
2022/06/18 06:31:02;;;;;;;18.80;6.90;;;;;;;22.14;52.60;99340.20;25060;1316;3026809;-64
2022/06/18 06:33:31;;;;;;;14.80;6.40;;;;;;;22.11;52.93;99344.65;25093;1316;3026776;-64
2022/06/18 06:36:01;;;;;;;14.90;6.30;;;;;;;22.20;52.89;99338.00;25061;1316;3026784;-62
2022/06/18 06:38:32;;;;;;;11.60;6.10;;;;;;;22.24;53.10;99340.86;25036;1314;3026817;-66
2022/06/18 06:41:01;;;;;;;20.00;6.70;;;;;;;22.19;52.67;99335.39;25100;1313;3054195;-62
2022/06/18 06:43:30;;;;;;;13.40;6.80;;;;;;;22.20;51.89;99332.48;25012;1319;3026354;-63
2022/06/18 06:45:59;;;;;;;15.30;6.70;;;;;;;22.36;51.91;99336.70;25072;1316;3026903;-63
2022/06/18 06:48:30;;;;;;;16.80;6.20;;;;;;;22.39;51.84;99343.02;25110;1316;3051905;-62
2022/06/18 06:51:00;;;;;;;12.60;6.60;;;;;;;22.56;51.33;99336.84;25122;1316;3026182;-63
2022/06/18 06:53:29;;;;;;;11.40;6.30;;;;;;;22.69;51.46;99338.23;25095;1316;3053194;-61
2022/06/18 06:58:46;;;;;;;11.30;5.80;;;;;;;22.92;50.03;99335.89;25045;1314;3054044;-61
2022/06/18 07:01:15;;;;;;;17.80;6.20;;;;;;;23.08;49.97;99335.15;25111;1316;3026311;-63
2022/06/18 07:03:44;;;;;;;13.50;6.00;;;;;;;23.29;50.01;99329.20;25035;1316;3055642;-62
2022/06/18 07:06:19;;;;;;;;;;;;;;;23.46;49.14;99325.82;25080;1315;3053595;-61
2022/06/18 07:08:50;;;;;;;16.10;5.50;;;;;;;23.44;49.17;99328.39;24632;1316;3026245;-62
2022/06/18 07:11:22;;;;;;;7.00;4.70;;;;;;;23.50;48.30;99329.48;25165;1316;3049224;-62
2022/06/18 07:13:51;;;;;;;12.00;5.70;;;;;;;23.51;47.24;99332.42;25069;1315;3026578;-61
2022/06/18 07:16:20;;;;;;;18.90;5.30;;;;;;;23.59;46.64;99326.49;25029;1315;3067736;-62
2022/06/18 07:18:53;;;;;;;12.80;4.90;;;;;;;23.74;45.88;99328.21;25075;1316;3026955;-62
2022/06/18 07:21:22;;;;;;;12.40;4.80;;;;;;;23.88;45.74;99325.59;25126;1316;3026953;-61
2022/06/18 07:23:51;;;;;;;10.30;5.30;;;;;;;23.96;45.58;99322.61;25080;1316;3026978;-62
2022/06/18 07:26:22;;;;;;;10.80;4.60;;;;;;;24.02;45.50;99331.24;25052;1316;3027575;-63
2022/06/18 07:28:51;;;;;;;15.10;4.80;;;;;;;24.17;43.84;99334.13;25086;1315;3026557;-62
2022/06/18 07:31:30;;;;;;;11.90;4.80;;;;;;;24.28;43.24;99333.30;25067;1315;3026558;-62
2022/06/18 07:34:00;;;;;;;12.60;3.90;;;;;;;24.32;41.64;99336.98;25117;1316;3057195;-64
2022/06/18 07:36:32;;;;;;;6.80;3.80;;;;;;;24.36;42.09;99335.02;25052;1316;3026533;-62
2022/06/18 07:39:03;;;;;;;10.40;3.60;;;;;;;24.40;41.81;99335.64;25088;1316;3026776;-63
2022/06/18 07:41:35;;;;;;;12.70;4.00;;;;;;;24.44;41.31;99335.88;25118;1316;3027152;-64
2022/06/18 07:44:04;;;;;;;9.60;4.10;;;;;;;24.43;40.90;99335.64;25006;1316;3026687;-64
2022/06/18 07:46:34;;;;;;;8.80;4.10;;;;;;;24.46;41.77;99330.64;25086;1318;3026547;-61
2022/06/18 07:49:05;;;;;;;7.90;4.10;;;;;;;24.57;41.38;99329.09;25048;1316;3028607;-62
2022/06/18 07:51:35;;;;;;;6.00;3.50;;;;;;;24.70;41.47;99334.35;25057;1316;3071212;-62
2022/06/18 07:54:04;;;;;;;6.40;3.50;;;;;;;24.80;40.96;99336.88;25118;1316;3026503;-62
2022/06/18 07:56:33;;;;;;;10.70;3.40;;;;;;;25.03;40.74;99335.55;25115;1316;3054369;-63
2022/06/18 07:59:02;;;;;;;13.40;3.70;;;;;;;25.34;40.06;99332.94;25042;1314;3029402;-62
2022/06/18 08:01:32;;;;;;;9.10;3.70;;;;;;;25.37;39.70;99327.96;25081;1316;3055260;-64
2022/06/18 08:04:02;;;;;;;6.00;3.50;;;;;;;25.39;39.82;99330.06;25089;1316;3026258;-62
2022/06/18 08:06:32;;;;;;;6.00;3.50;;;;;;;25.45;39.82;99330.03;25136;1316;3026822;-63
2022/06/18 08:09:01;;;;;;;8.20;3.40;;;;;;;25.51;39.55;99327.98;25025;1316;3026924;-63
2022/06/18 08:11:30;;;;;;;6.10;3.70;;;;;;;25.68;39.97;99334.41;25054;1316;3026269;-64
2022/06/18 08:13:59;;;;;;;7.50;4.10;;;;;;;25.77;40.05;99329.52;25124;1316;3068889;-61
2022/06/18 08:16:30;;;;;;;7.40;3.30;;;;;;;25.77;40.05;99333.45;25025;1316;3026699;-63
2022/06/18 08:19:00;;;;;;;12.40;3.70;;;;;;;25.72;39.56;99330.46;25085;1316;3026326;-63
2022/06/18 08:21:32;;;;;;;9.30;3.70;;;;;;;25.82;39.57;99330.13;25055;1315;3066979;-62
2022/06/18 08:24:09;;;;;;;17.20;3.30;;;;;;;25.83;38.35;99329.48;25058;1316;3026821;-63
2022/06/18 08:26:39;;;;;;;4.90;2.90;;;;;;;25.96;37.73;99323.23;25042;1316;3055042;-62
2022/06/18 08:29:10;;;;;;;4.90;2.90;;;;;;;25.87;38.29;99325.98;25065;1316;3026810;-64
2022/06/18 08:31:39;;;;;;;5.40;2.60;;;;;;;25.90;37.95;99324.89;25100;1317;3049241;-64
2022/06/18 08:34:08;;;;;;;7.10;3.10;;;;;;;26.02;37.80;99326.06;25101;1316;3026459;-63
2022/06/18 08:36:37;;;;;;;9.50;2.50;;;;;;;26.20;37.54;99327.13;25067;1316;3070905;-62
2022/06/18 08:39:06;;;;;;;5.30;2.40;;;;;;;26.45;37.05;99320.59;25058;1316;3026446;-62
2022/06/18 08:41:54;;;;;;;5.70;2.60;;;;;;;26.61;36.42;99320.20;25083;1316;3052947;-63
2022/06/18 08:45:08;;;;;;;4.60;2.30;;;;;;;26.57;35.90;99324.21;25063;1316;3069449;-64
2022/06/18 08:47:59;;;;;;;6.90;2.00;;;;;;;26.46;35.72;99319.27;25070;1316;3049217;-62
2022/06/18 08:50:31;;;;;;;6.60;2.20;;;;;;;26.49;35.97;99319.11;25061;1316;3054800;-62
2022/06/18 08:53:25;;;;;;;5.70;2.00;;;;;;;26.42;36.27;99317.69;25122;1316;3026588;-64
2022/06/18 08:56:09;;;;;;;8.40;2.40;;;;;;;26.52;36.24;99313.78;25038;1316;3055563;-63
2022/06/18 08:58:53;;;;;;;7.50;2.50;;;;;;;26.50;36.22;99317.21;25073;1316;3050218;-63
2022/06/18 09:01:32;;;;;;;5.70;2.50;;;;;;;26.39;36.31;99316.50;25054;1319;3055485;-62
2022/06/18 09:04:04;;;;;;;8.00;2.00;;;;;;;26.38;36.14;99311.08;25045;1316;3051461;-64
2022/06/18 09:06:51;;;;;;;4.80;2.40;;;;;;;26.39;36.39;99313.08;25053;1316;3028634;-63
2022/06/18 09:09:30;;;;;;;8.30;2.00;;;;;;;26.46;36.27;99310.78;25021;1316;3051406;-62
2022/06/18 09:12:14;;;;;;;3.20;2.00;;;;;;;26.23;36.49;99308.71;25107;1316;3055555;-62
2022/06/18 09:14:49;;;;;;;;;;;;;;;26.35;36.24;99310.31;25073;1318;3055649;-64
2022/06/18 09:17:46;;;;;;;7.10;2.00;;;;;;;26.28;36.71;99308.03;25056;1316;3059303;-63
2022/06/18 09:20:48;;;;;;;4.00;2.00;;;;;;;26.41;36.40;99310.88;25061;1316;3051983;-62
2022/06/18 09:23:24;;;;;;;4.90;2.10;;;;;;;26.36;36.00;99311.06;24969;1316;3053706;-63
2022/06/18 09:25:56;;;;;;;5.10;1.70;;;;;;;26.33;36.19;99307.36;25043;1316;3054226;-62
2022/06/18 09:28:37;;;;;;;9.80;2.10;;;;;;;26.48;35.87;99310.16;25095;1316;3026696;-63
2022/06/18 09:31:14;;;;;;;3.30;1.80;;;;;;;26.62;36.19;99303.22;25048;1315;3051427;-62
2022/06/18 09:33:48;;;;;;;6.20;1.90;;;;;;;26.63;36.80;99303.30;25106;1316;3052678;-63
2022/06/18 09:36:19;;;;;;;3.70;1.80;;;;;;;26.56;36.98;99303.60;25095;1316;3055290;-61
2022/06/18 09:38:55;;;;;;;5.30;1.90;;;;;;;26.55;36.48;99297.70;25075;1318;3026711;-60
2022/06/18 09:41:30;;;;;;;3.80;1.80;;;;;;;26.84;36.54;99298.38;25061;1316;3049269;-62
2022/06/18 09:44:35;;;;;;;3.60;2.00;;;;;;;26.78;36.21;99308.19;25089;1316;3052848;-62
2022/06/18 09:47:08;;;;;;;4.20;1.90;;;;;;;26.60;36.22;99310.63;25016;1316;3052373;-63
2022/06/18 09:49:39;;;;;;;3.10;1.80;;;;;;;26.58;36.34;99307.71;25081;1318;3068227;-63
2022/06/18 09:52:12;;;;;;;2.70;1.60;;;;;;;26.63;36.36;99306.27;25085;1319;3028165;-62
2022/06/18 09:54:48;;;;;;;3.00;1.80;;;;;;;26.93;35.31;99300.05;25081;1317;3054131;-63
2022/06/18 09:57:18;;;;;;;3.20;1.90;;;;;;;27.06;34.93;99297.34;25101;1316;3026773;-62
2022/06/18 09:59:59;;;;;;;5.10;1.80;;;;;;;27.12;35.05;99297.27;25112;1318;3026129;-64
2022/06/18 10:02:30;;;;;;;5.20;1.90;;;;;;;27.11;35.23;99298.05;25053;1314;3049926;-62
2022/06/18 10:07:49;;;;;;;3.90;1.70;;;;;;;27.02;35.67;99301.57;25052;1316;3054517;-62
2022/06/18 10:13:13;;;;;;;9.10;3.20;;;;;;;27.17;34.17;99292.30;25103;1316;3055884;-63
2022/06/18 10:15:42;;;;;;;3.90;2.20;;;;;;;27.18;34.48;99294.29;25098;1316;3026245;-64
2022/06/18 10:18:19;;;;;;;7.00;1.60;;;;;;;27.33;34.01;99291.95;25076;1316;3026538;-63
2022/06/18 10:21:28;;;;;;;3.00;1.30;;;;;;;27.44;32.48;99287.38;25059;1316;3054908;-63
2022/06/18 10:24:20;;;;;;;3.40;1.60;;;;;;;27.60;32.37;99281.09;25030;1316;3052533;-62
2022/06/18 10:26:56;;;;;;;6.70;1.50;;;;;;;27.61;32.61;99279.77;25065;1316;3069636;-63
2022/06/18 10:29:44;;;;;;;5.30;1.50;;;;;;;27.81;32.60;99270.23;25114;1316;3049475;-61
2022/06/18 10:32:29;;;;;;;6.40;1.60;;;;;;;27.73;32.51;99274.85;25072;1316;3052239;-63
2022/06/18 10:35:19;;;;;;;2.90;1.60;;;;;;;27.48;32.93;99279.20;25054;1316;3054920;-62
2022/06/18 10:38:07;;;;;;;4.70;2.00;;;;;;;27.37;33.00;99277.06;25041;1316;3058645;-62
2022/06/18 10:40:49;;;;;;;4.80;1.60;;;;;;;27.39;32.61;99275.69;25050;1316;3052595;-63
2022/06/18 10:43:18;;;;;;;2.70;1.80;;;;;;;27.47;32.56;99274.05;25030;1316;3056077;-63
2022/06/18 10:45:48;;;;;;;4.20;1.50;;;;;;;27.59;32.64;99268.27;25100;1316;3026302;-63
2022/06/18 10:48:20;;;;;;;1.80;1.30;;;;;;;27.62;32.76;99269.67;25080;1314;3050132;-64
2022/06/18 10:50:52;;;;;;;6.20;1.90;;;;;;;27.44;33.41;99275.91;25083;1316;3026790;-61
2022/06/18 10:53:24;;;;;;;2.70;1.80;;;;;;;27.32;33.54;99283.10;25028;1316;3026489;-64
2022/06/18 10:56:01;;;;;;;1.90;1.40;;;;;;;27.22;33.03;99283.71;25091;1315;3027797;-66
2022/06/18 10:58:30;;;;;;;6.50;1.50;;;;;;;26.96;33.09;99283.52;25039;1316;3049759;-62
2022/06/18 11:01:12;;;;;;;6.10;1.50;;;;;;;26.83;33.26;99282.58;25084;1316;3028294;-62
2022/06/18 11:03:52;;;;;;;5.60;1.60;;;;;;;26.83;33.25;99287.64;25009;1315;3071253;-63
2022/06/18 11:06:22;;;;;;;4.60;1.60;;;;;;;26.88;33.12;99284.79;25101;1316;3049690;-64
2022/06/18 11:08:54;;;;;;;5.90;2.30;;;;;;;26.89;33.37;99285.16;25091;1316;3026584;-63
2022/06/18 11:11:29;;;;;;;6.10;2.00;;;;;;;26.77;33.68;99283.40;25008;1317;3026855;-63
2022/06/18 11:14:27;;;;;;;;;;;;;;;26.74;33.48;99284.59;25036;1316;3056425;-61
2022/06/18 11:16:57;;;;;;;4.30;2.30;;;;;;;26.60;33.77;99284.60;25023;1316;3052349;-63
2022/06/18 11:19:32;;;;;;;3.70;1.50;;;;;;;26.57;34.01;99286.08;25098;1315;3026790;-62
2022/06/18 11:22:10;;;;;;;2.50;1.30;;;;;;;26.47;34.00;99281.80;25073;1316;3053120;-62
2022/06/18 11:24:39;;;;;;;4.40;1.70;;;;;;;26.42;33.39;99268.13;25096;1316;3069920;-64
2022/06/18 11:27:17;;;;;;;2.40;1.20;;;;;;;26.44;33.61;99268.46;25038;1316;3026767;-63
2022/06/18 11:29:51;;;;;;;1.90;1.30;;;;;;;26.40;33.72;99265.14;25065;1315;3053187;-64
2022/06/18 11:32:35;;;;;;;4.80;1.60;;;;;;;26.44;34.51;99270.20;25102;1316;3069886;-63
2022/06/18 11:35:19;;;;;;;8.40;2.60;;;;;;;26.26;37.51;99273.48;25136;1316;3048804;-63
2022/06/18 11:38:31;;;;;;;8.60;2.80;;;;;;;25.85;39.18;99279.36;25081;1316;3055280;-62
2022/06/18 11:41:06;;;;;;;6.30;2.30;;;;;;;25.44;40.30;99272.22;25045;1316;3055131;-62
2022/06/18 11:43:56;;;;;;;14.40;2.90;;;;;;;25.44;40.64;99264.13;25062;1316;3057730;-64
2022/06/18 11:46:29;;;;;;;6.20;2.70;;;;;;;25.52;40.41;99267.79;25119;1315;3050307;-64
2022/06/18 11:49:07;;;;;;;6.30;2.40;;;;;;;25.65;40.22;99264.77;25055;1316;3053202;-63
2022/06/18 11:51:50;;;;;;;7.60;2.60;;;;;;;25.43;40.19;99277.05;25069;1316;3052278;-63
2022/06/18 11:54:31;;;;;;;4.20;2.60;;;;;;;25.30;41.36;99277.52;25099;1316;3068657;-62
2022/06/18 11:57:05;;;;;;;6.00;2.90;;;;;;;25.18;41.92;99284.84;25060;1316;3048951;-63
2022/06/18 11:59:42;;;;;;;9.60;3.70;;;;;;;24.97;42.40;99287.00;25071;1316;3052576;-62
2022/06/18 12:02:26;;;;;;;6.50;3.20;;;;;;;24.75;43.07;99278.95;25146;1316;3053835;-63
2022/06/18 12:04:57;;;;;;;;;;;;;;;24.58;44.05;99279.04;25110;1315;3059519;-64
2022/06/18 12:07:33;;;;;;;9.00;4.00;;;;;;;24.53;44.55;99283.26;25034;1316;3026762;-63